sensor_id;sensor_type;location;lat;lon;timestamp;P1;durP1;ratioP1;P2;durP2;ratioP2
78908;SDS011;68298;37.368;127.108;2023-05-01T00:02:18;18.50;;;10.70;;
78908;SDS011;68298;37.368;127.108;2023-05-01T00:04:48;16.58;;;10.15;;
78908;SDS011;68298;37.368;127.108;2023-05-01T00:07:19;16.98;;;11.02;;
78908;SDS011;68298;37.368;127.108;2023-05-01T00:09:50;19.15;;;12.00;;
78908;SDS011;68298;37.368;127.108;2023-05-01T00:12:21;20.20;;;12.07;;
78908;SDS011;68298;37.368;127.108;2023-05-01T00:14:55;19.13;;;11.70;;
78908;SDS011;68298;37.368;127.108;2023-05-01T00:17:25;16.30;;;10.80;;
78908;SDS011;68298;37.368;127.108;2023-05-01T00:19:56;18.13;;;10.25;;
78908;SDS011;68298;37.368;127.108;2023-05-01T00:22:27;16.67;;;10.10;;
78908;SDS011;68298;37.368;127.108;2023-05-01T00:24:58;14.98;;;10.05;;
78908;SDS011;68298;37.368;127.108;2023-05-01T00:27:28;18.52;;;10.65;;
78908;SDS011;68298;37.368;127.108;2023-05-01T00:29:59;20.55;;;10.77;;
78908;SDS011;68298;37.368;127.108;2023-05-01T00:32:29;18.20;;;10.43;;
78908;SDS011;68298;37.368;127.108;2023-05-01T00:35:00;16.77;;;10.93;;
78908;SDS011;68298;37.368;127.108;2023-05-01T00:37:32;17.02;;;10.13;;
78908;SDS011;68298;37.368;127.108;2023-05-01T00:40:03;17.55;;;9.88;;
78908;SDS011;68298;37.368;127.108;2023-05-01T00:42:36;15.82;;;10.88;;
78908;SDS011;68298;37.368;127.108;2023-05-01T00:45:08;18.05;;;10.40;;
78908;SDS011;68298;37.368;127.108;2023-05-01T00:47:39;17.27;;;10.93;;
78908;SDS011;68298;37.368;127.108;2023-05-01T00:50:09;14.20;;;9.50;;
78908;SDS011;68298;37.368;127.108;2023-05-01T00:52:40;14.57;;;9.82;;
78908;SDS011;68298;37.368;127.108;2023-05-01T00:55:11;13.68;;;9.27;;
78908;SDS011;68298;37.368;127.108;2023-05-01T00:57:42;17.02;;;9.52;;
78908;SDS011;68298;37.368;127.108;2023-05-01T01:00:13;11.73;;;8.65;;
78908;SDS011;68298;37.368;127.108;2023-05-01T01:02:45;13.57;;;8.95;;
78908;SDS011;68298;37.368;127.108;2023-05-01T01:05:16;15.30;;;9.05;;
78908;SDS011;68298;37.368;127.108;2023-05-01T01:11:21;13.20;;;8.85;;
78908;SDS011;68298;37.368;127.108;2023-05-01T01:14:31;13.13;;;8.48;;
78908;SDS011;68298;37.368;127.108;2023-05-01T01:17:26;13.68;;;8.27;;
78908;SDS011;68298;37.368;127.108;2023-05-01T01:20:14;17.70;;;9.13;;
78908;SDS011;68298;37.368;127.108;2023-05-01T01:22:50;14.07;;;8.25;;
78908;SDS011;68298;37.368;127.108;2023-05-01T01:25:48;13.10;;;8.50;;
78908;SDS011;68298;37.368;127.108;2023-05-01T01:34:46;10.63;;;7.50;;
78908;SDS011;68298;37.368;127.108;2023-05-01T01:37:28;10.35;;;7.18;;
78908;SDS011;68298;37.368;127.108;2023-05-01T01:40:21;14.38;;;8.07;;
78908;SDS011;68298;37.368;127.108;2023-05-01T01:43:06;11.20;;;7.35;;
78908;SDS011;68298;37.368;127.108;2023-05-01T01:45:40;10.77;;;7.43;;
78908;SDS011;68298;37.368;127.108;2023-05-01T01:48:16;13.43;;;7.70;;
78908;SDS011;68298;37.368;127.108;2023-05-01T01:50:54;10.73;;;6.85;;
78908;SDS011;68298;37.368;127.108;2023-05-01T01:53:28;10.07;;;6.93;;
78908;SDS011;68298;37.368;127.108;2023-05-01T01:55:59;9.13;;;6.32;;
78908;SDS011;68298;37.368;127.108;2023-05-01T01:58:35;12.57;;;6.70;;
78908;SDS011;68298;37.368;127.108;2023-05-01T02:01:08;8.07;;;5.82;;
78908;SDS011;68298;37.368;127.108;2023-05-01T02:03:39;7.97;;;5.60;;
78908;SDS011;68298;37.368;127.108;2023-05-01T02:06:12;8.90;;;6.03;;
78908;SDS011;68298;37.368;127.108;2023-05-01T02:08:46;10.63;;;5.65;;
78908;SDS011;68298;37.368;127.108;2023-05-01T02:11:19;9.20;;;5.57;;
78908;SDS011;68298;37.368;127.108;2023-05-01T02:13:52;10.93;;;6.05;;
78908;SDS011;68298;37.368;127.108;2023-05-01T02:16:23;9.57;;;4.78;;
78908;SDS011;68298;37.368;127.108;2023-05-01T02:18:58;7.60;;;4.55;;
78908;SDS011;68298;37.368;127.108;2023-05-01T02:21:32;9.98;;;5.50;;
78908;SDS011;68298;37.368;127.108;2023-05-01T02:24:05;8.70;;;4.97;;
78908;SDS011;68298;37.368;127.108;2023-05-01T02:26:42;7.60;;;5.53;;
78908;SDS011;68298;37.368;127.108;2023-05-01T02:29:18;7.55;;;5.43;;
78908;SDS011;68298;37.368;127.108;2023-05-01T02:31:48;15.80;;;6.70;;
78908;SDS011;68298;37.368;127.108;2023-05-01T02:34:19;8.15;;;5.95;;
78908;SDS011;68298;37.368;127.108;2023-05-01T02:36:50;9.40;;;5.60;;
78908;SDS011;68298;37.368;127.108;2023-05-01T02:39:21;9.27;;;6.10;;
78908;SDS011;68298;37.368;127.108;2023-05-01T02:41:53;7.72;;;5.25;;
78908;SDS011;68298;37.368;127.108;2023-05-01T02:44:26;8.07;;;5.22;;
78908;SDS011;68298;37.368;127.108;2023-05-01T02:46:59;9.23;;;5.35;;
78908;SDS011;68298;37.368;127.108;2023-05-01T02:49:31;7.45;;;4.72;;
78908;SDS011;68298;37.368;127.108;2023-05-01T02:52:04;11.18;;;5.30;;
78908;SDS011;68298;37.368;127.108;2023-05-01T02:54:35;6.40;;;4.72;;
78908;SDS011;68298;37.368;127.108;2023-05-01T02:57:08;7.85;;;5.05;;
78908;SDS011;68298;37.368;127.108;2023-05-01T02:59:39;8.68;;;4.80;;
78908;SDS011;68298;37.368;127.108;2023-05-01T03:02:10;10.60;;;4.90;;
78908;SDS011;68298;37.368;127.108;2023-05-01T03:04:41;8.75;;;5.00;;
78908;SDS011;68298;37.368;127.108;2023-05-01T03:07:12;6.35;;;4.50;;
78908;SDS011;68298;37.368;127.108;2023-05-01T03:09:43;7.38;;;4.68;;
78908;SDS011;68298;37.368;127.108;2023-05-01T03:12:13;6.30;;;4.28;;
78908;SDS011;68298;37.368;127.108;2023-05-01T03:14:44;7.20;;;4.78;;
78908;SDS011;68298;37.368;127.108;2023-05-01T03:17:14;8.60;;;4.57;;
78908;SDS011;68298;37.368;127.108;2023-05-01T03:19:45;7.13;;;4.43;;
78908;SDS011;68298;37.368;127.108;2023-05-01T03:22:17;6.70;;;4.57;;
78908;SDS011;68298;37.368;127.108;2023-05-01T03:24:49;8.68;;;4.75;;
78908;SDS011;68298;37.368;127.108;2023-05-01T03:27:20;6.05;;;4.07;;
78908;SDS011;68298;37.368;127.108;2023-05-01T03:29:53;6.65;;;4.50;;
78908;SDS011;68298;37.368;127.108;2023-05-01T03:32:24;7.03;;;4.13;;
78908;SDS011;68298;37.368;127.108;2023-05-01T03:34:57;5.70;;;3.90;;
78908;SDS011;68298;37.368;127.108;2023-05-01T03:37:28;6.80;;;4.97;;
78908;SDS011;68298;37.368;127.108;2023-05-01T03:39:59;8.18;;;4.75;;
78908;SDS011;68298;37.368;127.108;2023-05-01T03:42:47;6.82;;;4.47;;
78908;SDS011;68298;37.368;127.108;2023-05-01T03:45:21;6.88;;;4.38;;
78908;SDS011;68298;37.368;127.108;2023-05-01T03:47:52;7.80;;;4.40;;
78908;SDS011;68298;37.368;127.108;2023-05-01T03:50:23;5.97;;;4.05;;
78908;SDS011;68298;37.368;127.108;2023-05-01T03:52:54;5.95;;;4.13;;
78908;SDS011;68298;37.368;127.108;2023-05-01T03:55:25;7.68;;;3.90;;
78908;SDS011;68298;37.368;127.108;2023-05-01T03:57:55;5.43;;;3.85;;
78908;SDS011;68298;37.368;127.108;2023-05-01T04:00:27;5.97;;;3.88;;
78908;SDS011;68298;37.368;127.108;2023-05-01T04:02:57;5.50;;;3.80;;
78908;SDS011;68298;37.368;127.108;2023-05-01T04:05:31;14.02;;;4.13;;
78908;SDS011;68298;37.368;127.108;2023-05-01T04:08:02;6.40;;;3.70;;
78908;SDS011;68298;37.368;127.108;2023-05-01T04:10:33;6.88;;;3.70;;
78908;SDS011;68298;37.368;127.108;2023-05-01T04:13:04;7.57;;;3.58;;
78908;SDS011;68298;37.368;127.108;2023-05-01T04:15:35;6.10;;;3.90;;
78908;SDS011;68298;37.368;127.108;2023-05-01T04:18:05;6.78;;;3.75;;
78908;SDS011;68298;37.368;127.108;2023-05-01T04:20:36;6.30;;;3.75;;
78908;SDS011;68298;37.368;127.108;2023-05-01T04:23:08;6.63;;;3.83;;
78908;SDS011;68298;37.368;127.108;2023-05-01T04:25:38;5.35;;;3.63;;
78908;SDS011;68298;37.368;127.108;2023-05-01T04:28:13;6.55;;;3.55;;
78908;SDS011;68298;37.368;127.108;2023-05-01T04:30:43;4.47;;;3.05;;
78908;SDS011;68298;37.368;127.108;2023-05-01T04:33:14;6.95;;;3.42;;
78908;SDS011;68298;37.368;127.108;2023-05-01T04:35:45;6.15;;;3.75;;
78908;SDS011;68298;37.368;127.108;2023-05-01T04:38:15;5.32;;;3.65;;
78908;SDS011;68298;37.368;127.108;2023-05-01T04:40:47;6.22;;;3.72;;
78908;SDS011;68298;37.368;127.108;2023-05-01T04:43:18;5.13;;;3.47;;
78908;SDS011;68298;37.368;127.108;2023-05-01T04:45:48;5.60;;;3.53;;
78908;SDS011;68298;37.368;127.108;2023-05-01T04:48:19;7.68;;;3.55;;
78908;SDS011;68298;37.368;127.108;2023-05-01T04:50:49;6.20;;;3.78;;
78908;SDS011;68298;37.368;127.108;2023-05-01T04:53:20;4.75;;;3.45;;
78908;SDS011;68298;37.368;127.108;2023-05-01T04:55:51;6.32;;;3.83;;
78908;SDS011;68298;37.368;127.108;2023-05-01T04:58:22;5.32;;;3.65;;
78908;SDS011;68298;37.368;127.108;2023-05-01T05:00:58;5.28;;;3.40;;
78908;SDS011;68298;37.368;127.108;2023-05-01T05:03:28;4.63;;;3.40;;
78908;SDS011;68298;37.368;127.108;2023-05-01T05:05:59;4.13;;;3.58;;
78908;SDS011;68298;37.368;127.108;2023-05-01T05:08:30;5.70;;;3.15;;
78908;SDS011;68298;37.368;127.108;2023-05-01T05:11:07;9.45;;;3.83;;
78908;SDS011;68298;37.368;127.108;2023-05-01T05:13:58;5.47;;;3.08;;
78908;SDS011;68298;37.368;127.108;2023-05-01T05:16:29;7.25;;;3.42;;
78908;SDS011;68298;37.368;127.108;2023-05-01T05:19:00;6.35;;;3.25;;
78908;SDS011;68298;37.368;127.108;2023-05-01T05:21:35;8.10;;;3.72;;
78908;SDS011;68298;37.368;127.108;2023-05-01T05:24:05;7.65;;;2.97;;
78908;SDS011;68298;37.368;127.108;2023-05-01T05:26:36;8.63;;;3.17;;
78908;SDS011;68298;37.368;127.108;2023-05-01T05:29:07;6.15;;;3.35;;
78908;SDS011;68298;37.368;127.108;2023-05-01T05:31:37;12.50;;;3.63;;
78908;SDS011;68298;37.368;127.108;2023-05-01T05:34:08;11.38;;;3.60;;
78908;SDS011;68298;37.368;127.108;2023-05-01T05:36:39;19.75;;;3.78;;
78908;SDS011;68298;37.368;127.108;2023-05-01T05:39:10;18.75;;;3.83;;
78908;SDS011;68298;37.368;127.108;2023-05-01T05:41:41;9.65;;;3.67;;
78908;SDS011;68298;37.368;127.108;2023-05-01T05:44:11;12.63;;;4.20;;
78908;SDS011;68298;37.368;127.108;2023-05-01T05:46:42;170.30;;;12.98;;
78908;SDS011;68298;37.368;127.108;2023-05-01T05:49:19;321.90;;;23.83;;
78908;SDS011;68298;37.368;127.108;2023-05-01T05:51:49;441.60;;;30.45;;
78908;SDS011;68298;37.368;127.108;2023-05-01T05:54:20;220.48;;;19.75;;
78908;SDS011;68298;37.368;127.108;2023-05-01T05:56:50;64.97;;;7.53;;
78908;SDS011;68298;37.368;127.108;2023-05-01T05:59:21;49.30;;;5.60;;
78908;SDS011;68298;37.368;127.108;2023-05-01T06:01:51;43.50;;;5.40;;
78908;SDS011;68298;37.368;127.108;2023-05-01T06:04:22;72.57;;;7.63;;
78908;SDS011;68298;37.368;127.108;2023-05-01T06:06:52;31.88;;;4.65;;
78908;SDS011;68298;37.368;127.108;2023-05-01T06:09:23;41.33;;;5.68;;
78908;SDS011;68298;37.368;127.108;2023-05-01T06:11:54;37.22;;;4.45;;
78908;SDS011;68298;37.368;127.108;2023-05-01T06:14:25;39.38;;;5.28;;
78908;SDS011;68298;37.368;127.108;2023-05-01T06:16:56;34.45;;;4.65;;
78908;SDS011;68298;37.368;127.108;2023-05-01T06:19:26;22.08;;;4.57;;
78908;SDS011;68298;37.368;127.108;2023-05-01T06:22:04;22.80;;;3.80;;
78908;SDS011;68298;37.368;127.108;2023-05-01T06:24:41;25.15;;;4.28;;
78908;SDS011;68298;37.368;127.108;2023-05-01T06:27:12;15.88;;;4.10;;
78908;SDS011;68298;37.368;127.108;2023-05-01T06:29:43;26.38;;;3.72;;
78908;SDS011;68298;37.368;127.108;2023-05-01T06:32:14;22.10;;;3.97;;
78908;SDS011;68298;37.368;127.108;2023-05-01T06:34:45;15.73;;;3.50;;
78908;SDS011;68298;37.368;127.108;2023-05-01T06:37:16;33.67;;;4.00;;
78908;SDS011;68298;37.368;127.108;2023-05-01T06:39:48;23.73;;;4.30;;
78908;SDS011;68298;37.368;127.108;2023-05-01T06:42:18;13.68;;;3.25;;
78908;SDS011;68298;37.368;127.108;2023-05-01T06:44:49;15.25;;;2.90;;
78908;SDS011;68298;37.368;127.108;2023-05-01T06:47:20;17.88;;;3.50;;
78908;SDS011;68298;37.368;127.108;2023-05-01T06:49:51;17.13;;;3.40;;
78908;SDS011;68298;37.368;127.108;2023-05-01T06:52:22;11.07;;;3.10;;
78908;SDS011;68298;37.368;127.108;2023-05-01T06:54:53;9.20;;;2.97;;
78908;SDS011;68298;37.368;127.108;2023-05-01T06:57:23;14.95;;;3.38;;
78908;SDS011;68298;37.368;127.108;2023-05-01T06:59:54;12.80;;;2.97;;
78908;SDS011;68298;37.368;127.108;2023-05-01T07:02:25;12.43;;;3.15;;
78908;SDS011;68298;37.368;127.108;2023-05-01T07:04:55;12.35;;;3.03;;
78908;SDS011;68298;37.368;127.108;2023-05-01T07:07:26;15.95;;;3.00;;
78908;SDS011;68298;37.368;127.108;2023-05-01T07:09:58;8.88;;;2.83;;
78908;SDS011;68298;37.368;127.108;2023-05-01T07:12:29;8.23;;;2.65;;
78908;SDS011;68298;37.368;127.108;2023-05-01T07:14:59;7.85;;;2.95;;
78908;SDS011;68298;37.368;127.108;2023-05-01T07:17:30;10.98;;;2.83;;
78908;SDS011;68298;37.368;127.108;2023-05-01T07:20:01;13.55;;;3.63;;
78908;SDS011;68298;37.368;127.108;2023-05-01T07:22:33;294.55;;;17.40;;
78908;SDS011;68298;37.368;127.108;2023-05-01T07:25:03;33.15;;;3.75;;
78908;SDS011;68298;37.368;127.108;2023-05-01T07:27:34;32.03;;;3.88;;
78908;SDS011;68298;37.368;127.108;2023-05-01T07:30:05;120.18;;;8.57;;
78908;SDS011;68298;37.368;127.108;2023-05-01T07:32:36;48.78;;;5.28;;
78908;SDS011;68298;37.368;127.108;2023-05-01T07:35:07;53.53;;;4.93;;
78908;SDS011;68298;37.368;127.108;2023-05-01T07:37:38;42.45;;;6.00;;
78908;SDS011;68298;37.368;127.108;2023-05-01T07:40:08;45.35;;;4.93;;
78908;SDS011;68298;37.368;127.108;2023-05-01T07:42:39;24.55;;;4.72;;
78908;SDS011;68298;37.368;127.108;2023-05-01T07:45:09;24.83;;;4.63;;
78908;SDS011;68298;37.368;127.108;2023-05-01T07:47:40;858.13;;;66.05;;
78908;SDS011;68298;37.368;127.108;2023-05-01T07:50:11;87.40;;;8.23;;
78908;SDS011;68298;37.368;127.108;2023-05-01T07:52:42;296.02;;;19.95;;
78908;SDS011;68298;37.368;127.108;2023-05-01T07:55:13;1178.05;;;96.57;;
78908;SDS011;68298;37.368;127.108;2023-05-01T07:57:44;902.70;;;72.68;;
78908;SDS011;68298;37.368;127.108;2023-05-01T08:00:14;797.50;;;64.13;;
78908;SDS011;68298;37.368;127.108;2023-05-01T08:02:46;627.28;;;51.33;;
78908;SDS011;68298;37.368;127.108;2023-05-01T08:05:17;569.13;;;48.05;;
78908;SDS011;68298;37.368;127.108;2023-05-01T08:07:47;451.95;;;34.30;;
78908;SDS011;68298;37.368;127.108;2023-05-01T08:10:18;367.88;;;30.38;;
78908;SDS011;68298;37.368;127.108;2023-05-01T08:12:48;291.30;;;27.85;;
78908;SDS011;68298;37.368;127.108;2023-05-01T08:15:19;253.35;;;22.40;;
78908;SDS011;68298;37.368;127.108;2023-05-01T08:17:49;219.05;;;18.83;;
78908;SDS011;68298;37.368;127.108;2023-05-01T08:20:20;156.10;;;16.90;;
78908;SDS011;68298;37.368;127.108;2023-05-01T08:22:50;181.18;;;15.85;;
78908;SDS011;68298;37.368;127.108;2023-05-01T08:25:21;119.18;;;13.77;;
78908;SDS011;68298;37.368;127.108;2023-05-01T08:27:52;124.65;;;12.75;;
78908;SDS011;68298;37.368;127.108;2023-05-01T08:30:23;112.53;;;12.18;;
78908;SDS011;68298;37.368;127.108;2023-05-01T08:32:54;99.45;;;11.43;;
78908;SDS011;68298;37.368;127.108;2023-05-01T08:35:25;93.40;;;9.95;;
78908;SDS011;68298;37.368;127.108;2023-05-01T08:37:55;71.57;;;8.93;;
78908;SDS011;68298;37.368;127.108;2023-05-01T08:40:26;71.05;;;8.77;;
78908;SDS011;68298;37.368;127.108;2023-05-01T08:43:00;58.47;;;7.97;;
78908;SDS011;68298;37.368;127.108;2023-05-01T08:45:31;69.15;;;9.13;;
78908;SDS011;68298;37.368;127.108;2023-05-01T08:48:05;60.25;;;7.32;;
78908;SDS011;68298;37.368;127.108;2023-05-01T08:50:38;50.67;;;7.68;;
78908;SDS011;68298;37.368;127.108;2023-05-01T08:53:16;61.83;;;7.00;;
78908;SDS011;68298;37.368;127.108;2023-05-01T08:55:50;57.13;;;8.25;;
78908;SDS011;68298;37.368;127.108;2023-05-01T08:58:24;50.30;;;7.00;;
78908;SDS011;68298;37.368;127.108;2023-05-01T09:00:57;41.63;;;6.15;;
78908;SDS011;68298;37.368;127.108;2023-05-01T09:03:30;30.63;;;5.60;;
78908;SDS011;68298;37.368;127.108;2023-05-01T09:06:01;34.58;;;4.85;;
78908;SDS011;68298;37.368;127.108;2023-05-01T09:08:32;41.35;;;5.95;;
78908;SDS011;68298;37.368;127.108;2023-05-01T09:11:03;45.22;;;6.38;;
78908;SDS011;68298;37.368;127.108;2023-05-01T09:13:34;47.22;;;5.60;;
78908;SDS011;68298;37.368;127.108;2023-05-01T09:16:05;41.22;;;4.85;;
78908;SDS011;68298;37.368;127.108;2023-05-01T09:18:37;22.48;;;4.03;;
78908;SDS011;68298;37.368;127.108;2023-05-01T09:21:12;36.05;;;4.97;;
78908;SDS011;68298;37.368;127.108;2023-05-01T09:23:42;30.55;;;4.30;;
78908;SDS011;68298;37.368;127.108;2023-05-01T09:26:12;23.27;;;3.78;;
78908;SDS011;68298;37.368;127.108;2023-05-01T09:28:47;30.67;;;4.68;;
78908;SDS011;68298;37.368;127.108;2023-05-01T09:33:54;29.17;;;5.05;;
78908;SDS011;68298;37.368;127.108;2023-05-01T09:36:29;14.95;;;3.38;;
78908;SDS011;68298;37.368;127.108;2023-05-01T09:39:02;23.42;;;3.88;;
78908;SDS011;68298;37.368;127.108;2023-05-01T09:41:32;13.02;;;3.30;;
78908;SDS011;68298;37.368;127.108;2023-05-01T09:44:03;21.63;;;3.33;;
78908;SDS011;68298;37.368;127.108;2023-05-01T09:46:39;17.85;;;3.30;;
78908;SDS011;68298;37.368;127.108;2023-05-01T09:49:11;18.55;;;3.00;;
78908;SDS011;68298;37.368;127.108;2023-05-01T09:51:42;14.80;;;2.53;;
78908;SDS011;68298;37.368;127.108;2023-05-01T09:54:17;14.85;;;2.70;;
78908;SDS011;68298;37.368;127.108;2023-05-01T09:56:48;12.70;;;2.70;;
78908;SDS011;68298;37.368;127.108;2023-05-01T09:59:19;14.82;;;2.38;;
78908;SDS011;68298;37.368;127.108;2023-05-01T10:01:50;12.52;;;2.45;;
78908;SDS011;68298;37.368;127.108;2023-05-01T10:04:31;16.38;;;3.08;;
78908;SDS011;68298;37.368;127.108;2023-05-01T10:07:12;11.98;;;2.38;;
78908;SDS011;68298;37.368;127.108;2023-05-01T10:09:43;7.90;;;2.55;;
78908;SDS011;68298;37.368;127.108;2023-05-01T10:12:23;10.07;;;2.65;;
78908;SDS011;68298;37.368;127.108;2023-05-01T10:14:55;6.00;;;2.05;;
78908;SDS011;68298;37.368;127.108;2023-05-01T10:17:34;7.40;;;2.10;;
78908;SDS011;68298;37.368;127.108;2023-05-01T10:20:07;11.88;;;2.50;;
78908;SDS011;68298;37.368;127.108;2023-05-01T10:22:43;10.23;;;2.42;;
78908;SDS011;68298;37.368;127.108;2023-05-01T10:25:14;11.45;;;2.67;;
78908;SDS011;68298;37.368;127.108;2023-05-01T10:27:46;7.18;;;2.47;;
78908;SDS011;68298;37.368;127.108;2023-05-01T10:30:17;9.98;;;2.33;;
78908;SDS011;68298;37.368;127.108;2023-05-01T10:32:49;3.83;;;1.98;;
78908;SDS011;68298;37.368;127.108;2023-05-01T10:35:23;7.78;;;2.45;;
78908;SDS011;68298;37.368;127.108;2023-05-01T10:38:07;8.50;;;2.40;;
78908;SDS011;68298;37.368;127.108;2023-05-01T10:40:52;6.47;;;2.38;;
78908;SDS011;68298;37.368;127.108;2023-05-01T10:43:23;5.03;;;2.17;;
78908;SDS011;68298;37.368;127.108;2023-05-01T10:51:08;8.63;;;2.42;;
78908;SDS011;68298;37.368;127.108;2023-05-01T10:53:42;3.35;;;1.90;;
78908;SDS011;68298;37.368;127.108;2023-05-01T10:58:55;7.53;;;2.10;;
78908;SDS011;68298;37.368;127.108;2023-05-01T11:01:37;6.10;;;1.88;;
78908;SDS011;68298;37.368;127.108;2023-05-01T11:09:39;3.72;;;1.50;;
78908;SDS011;68298;37.368;127.108;2023-05-01T11:12:11;5.40;;;1.60;;
78908;SDS011;68298;37.368;127.108;2023-05-01T11:17:43;2.35;;;1.30;;
78908;SDS011;68298;37.368;127.108;2023-05-01T11:22:55;9.05;;;2.35;;
78908;SDS011;68298;37.368;127.108;2023-05-01T11:25:27;2.63;;;1.42;;
78908;SDS011;68298;37.368;127.108;2023-05-01T11:28:02;4.88;;;1.55;;
78908;SDS011;68298;37.368;127.108;2023-05-01T11:30:40;2.70;;;1.40;;
78908;SDS011;68298;37.368;127.108;2023-05-01T11:33:11;4.45;;;1.40;;
78908;SDS011;68298;37.368;127.108;2023-05-01T11:35:42;4.65;;;1.65;;
78908;SDS011;68298;37.368;127.108;2023-05-01T11:38:17;2.67;;;1.50;;
78908;SDS011;68298;37.368;127.108;2023-05-01T11:40:58;3.55;;;1.50;;
78908;SDS011;68298;37.368;127.108;2023-05-01T11:43:31;3.85;;;1.67;;
78908;SDS011;68298;37.368;127.108;2023-05-01T11:46:01;2.97;;;1.52;;
78908;SDS011;68298;37.368;127.108;2023-05-01T11:48:32;3.63;;;1.80;;
78908;SDS011;68298;37.368;127.108;2023-05-01T11:51:10;3.95;;;1.63;;
78908;SDS011;68298;37.368;127.108;2023-05-01T11:53:42;4.13;;;1.67;;
78908;SDS011;68298;37.368;127.108;2023-05-01T11:56:19;3.53;;;1.50;;
78908;SDS011;68298;37.368;127.108;2023-05-01T11:58:54;2.22;;;1.25;;
78908;SDS011;68298;37.368;127.108;2023-05-01T12:04:06;5.65;;;1.55;;
78908;SDS011;68298;37.368;127.108;2023-05-01T12:06:42;1.67;;;1.20;;
78908;SDS011;68298;37.368;127.108;2023-05-01T12:09:21;2.55;;;1.58;;
78908;SDS011;68298;37.368;127.108;2023-05-01T12:11:53;4.47;;;1.58;;
78908;SDS011;68298;37.368;127.108;2023-05-01T12:14:23;2.95;;;1.25;;
78908;SDS011;68298;37.368;127.108;2023-05-01T12:16:54;3.67;;;1.25;;
78908;SDS011;68298;37.368;127.108;2023-05-01T12:19:25;3.75;;;1.30;;
78908;SDS011;68298;37.368;127.108;2023-05-01T12:22:05;4.00;;;1.38;;
78908;SDS011;68298;37.368;127.108;2023-05-01T12:24:36;4.30;;;1.33;;
78908;SDS011;68298;37.368;127.108;2023-05-01T12:27:06;2.97;;;1.30;;
78908;SDS011;68298;37.368;127.108;2023-05-01T12:29:40;2.78;;;1.45;;
78908;SDS011;68298;37.368;127.108;2023-05-01T12:32:13;1.88;;;1.08;;
78908;SDS011;68298;37.368;127.108;2023-05-01T12:34:45;2.08;;;1.30;;
78908;SDS011;68298;37.368;127.108;2023-05-01T12:37:16;1.83;;;1.20;;
78908;SDS011;68298;37.368;127.108;2023-05-01T12:39:47;3.08;;;1.50;;
78908;SDS011;68298;37.368;127.108;2023-05-01T12:42:17;4.05;;;1.50;;
78908;SDS011;68298;37.368;127.108;2023-05-01T12:44:48;1.83;;;1.30;;
78908;SDS011;68298;37.368;127.108;2023-05-01T12:47:34;3.80;;;1.60;;
78908;SDS011;68298;37.368;127.108;2023-05-01T12:50:06;4.38;;;1.52;;
78908;SDS011;68298;37.368;127.108;2023-05-01T12:52:38;1.63;;;1.33;;
78908;SDS011;68298;37.368;127.108;2023-05-01T12:55:08;1.80;;;1.20;;
78908;SDS011;68298;37.368;127.108;2023-05-01T12:57:52;2.65;;;1.50;;
78908;SDS011;68298;37.368;127.108;2023-05-01T13:00:23;1.52;;;1.38;;
78908;SDS011;68298;37.368;127.108;2023-05-01T13:02:53;3.03;;;1.50;;
78908;SDS011;68298;37.368;127.108;2023-05-01T13:05:31;4.28;;;1.40;;
78908;SDS011;68298;37.368;127.108;2023-05-01T13:08:02;2.47;;;1.23;;
78908;SDS011;68298;37.368;127.108;2023-05-01T13:10:33;4.57;;;1.45;;
78908;SDS011;68298;37.368;127.108;2023-05-01T13:13:03;2.03;;;1.13;;
78908;SDS011;68298;37.368;127.108;2023-05-01T13:15:33;3.47;;;1.35;;
78908;SDS011;68298;37.368;127.108;2023-05-01T13:18:05;2.60;;;1.35;;
78908;SDS011;68298;37.368;127.108;2023-05-01T13:20:37;1.52;;;1.33;;
78908;SDS011;68298;37.368;127.108;2023-05-01T13:23:10;2.13;;;1.50;;
78908;SDS011;68298;37.368;127.108;2023-05-01T13:25:41;1.70;;;1.27;;
78908;SDS011;68298;37.368;127.108;2023-05-01T13:28:17;2.03;;;1.55;;
78908;SDS011;68298;37.368;127.108;2023-05-01T13:30:48;1.25;;;1.10;;
78908;SDS011;68298;37.368;127.108;2023-05-01T13:33:19;1.75;;;1.40;;
78908;SDS011;68298;37.368;127.108;2023-05-01T13:35:50;3.00;;;1.67;;
78908;SDS011;68298;37.368;127.108;2023-05-01T13:38:20;2.38;;;1.33;;
78908;SDS011;68298;37.368;127.108;2023-05-01T13:40:52;1.90;;;1.33;;
78908;SDS011;68298;37.368;127.108;2023-05-01T13:43:23;4.30;;;1.98;;
78908;SDS011;68298;37.368;127.108;2023-05-01T13:45:56;2.35;;;1.42;;
78908;SDS011;68298;37.368;127.108;2023-05-01T13:48:29;1.63;;;1.40;;
78908;SDS011;68298;37.368;127.108;2023-05-01T13:51:00;1.40;;;1.30;;
78908;SDS011;68298;37.368;127.108;2023-05-01T13:53:30;4.97;;;1.85;;
78908;SDS011;68298;37.368;127.108;2023-05-01T13:56:18;2.92;;;1.20;;
78908;SDS011;68298;37.368;127.108;2023-05-01T13:58:49;3.05;;;1.70;;
78908;SDS011;68298;37.368;127.108;2023-05-01T14:01:20;1.75;;;1.58;;
78908;SDS011;68298;37.368;127.108;2023-05-01T14:03:52;2.10;;;1.70;;
78908;SDS011;68298;37.368;127.108;2023-05-01T14:06:28;1.55;;;1.30;;
78908;SDS011;68298;37.368;127.108;2023-05-01T14:08:58;2.40;;;1.60;;
78908;SDS011;68298;37.368;127.108;2023-05-01T14:11:29;2.55;;;1.38;;
78908;SDS011;68298;37.368;127.108;2023-05-01T14:14:00;2.90;;;1.70;;
78908;SDS011;68298;37.368;127.108;2023-05-01T14:16:32;3.45;;;1.50;;
78908;SDS011;68298;37.368;127.108;2023-05-01T14:19:02;1.73;;;1.50;;
78908;SDS011;68298;37.368;127.108;2023-05-01T14:21:37;7.32;;;1.77;;
78908;SDS011;68298;37.368;127.108;2023-05-01T14:24:10;3.85;;;1.70;;
78908;SDS011;68298;37.368;127.108;2023-05-01T14:26:42;3.65;;;1.75;;
78908;SDS011;68298;37.368;127.108;2023-05-01T14:29:25;2.50;;;1.33;;
78908;SDS011;68298;37.368;127.108;2023-05-01T14:32:00;3.42;;;1.55;;
78908;SDS011;68298;37.368;127.108;2023-05-01T14:34:32;2.80;;;1.50;;
78908;SDS011;68298;37.368;127.108;2023-05-01T14:37:03;2.85;;;1.70;;
78908;SDS011;68298;37.368;127.108;2023-05-01T14:39:34;2.75;;;1.63;;
78908;SDS011;68298;37.368;127.108;2023-05-01T14:42:04;2.22;;;1.60;;
78908;SDS011;68298;37.368;127.108;2023-05-01T14:44:38;1.38;;;1.20;;
78908;SDS011;68298;37.368;127.108;2023-05-01T14:47:11;1.70;;;1.40;;
78908;SDS011;68298;37.368;127.108;2023-05-01T14:49:50;6.47;;;1.50;;
78908;SDS011;68298;37.368;127.108;2023-05-01T14:52:23;2.33;;;1.50;;
78908;SDS011;68298;37.368;127.108;2023-05-01T14:54:54;1.67;;;1.25;;
78908;SDS011;68298;37.368;127.108;2023-05-01T14:57:25;2.55;;;1.45;;
78908;SDS011;68298;37.368;127.108;2023-05-01T14:59:55;3.60;;;1.98;;
78908;SDS011;68298;37.368;127.108;2023-05-01T15:02:27;3.65;;;1.60;;
78908;SDS011;68298;37.368;127.108;2023-05-01T15:04:58;2.40;;;1.73;;
78908;SDS011;68298;37.368;127.108;2023-05-01T15:07:29;2.47;;;1.27;;
78908;SDS011;68298;37.368;127.108;2023-05-01T15:10:00;2.05;;;1.50;;
78908;SDS011;68298;37.368;127.108;2023-05-01T15:12:30;2.33;;;1.40;;
78908;SDS011;68298;37.368;127.108;2023-05-01T15:15:01;3.55;;;1.60;;
78908;SDS011;68298;37.368;127.108;2023-05-01T15:17:32;1.45;;;1.30;;
78908;SDS011;68298;37.368;127.108;2023-05-01T15:20:03;1.95;;;1.38;;